createdAt,value
2023-02-22T00:04:21.392Z,98829.48
2023-02-22T00:06:50.872Z,98835.41
2023-02-22T00:09:21.772Z,98842.65
2023-02-22T00:11:50.916Z,98851.56
2023-02-22T00:14:22.266Z,98851.52
2023-02-22T00:16:51.182Z,98853.27
2023-02-22T00:19:19.373Z,98857.99
2023-02-22T00:21:53.514Z,98854.27
2023-02-22T00:24:24.703Z,98859.23
2023-02-22T00:26:58.383Z,98868.92
2023-02-22T00:29:26.838Z,98868.72
2023-02-22T00:31:55.746Z,98873.35
2023-02-22T00:34:24.396Z,98880.46
2023-02-22T00:36:53.032Z,98891.98
2023-02-22T00:39:21.410Z,98893.58
2023-02-22T00:41:49.842Z,98900.80
2023-02-22T00:44:18.295Z,98903.14
2023-02-22T00:46:46.889Z,98909.13
2023-02-22T00:49:16.892Z,98916.38
2023-02-22T00:51:45.602Z,98918.05
2023-02-22T00:54:14.694Z,98923.98
2023-02-22T00:56:43.705Z,98927.27
2023-02-22T00:59:11.823Z,98937.42
2023-02-22T01:01:41.289Z,98942.02
2023-02-22T01:04:09.929Z,98945.09
2023-02-22T01:06:40.589Z,98947.64
2023-02-22T01:09:09.452Z,98948.33
2023-02-22T01:11:37.712Z,98951.69
2023-02-22T01:14:09.743Z,98960.52
2023-02-22T01:16:38.233Z,98962.05
2023-02-22T01:19:09.858Z,98964.95
2023-02-22T01:21:40.747Z,98970.04
2023-02-22T01:24:09.251Z,98975.77
2023-02-22T01:26:39.050Z,98980.80
2023-02-22T01:29:08.772Z,98980.83
2023-02-22T01:31:38.350Z,98985.08
2023-02-22T01:34:06.812Z,98989.80
2023-02-22T01:36:38.248Z,98990.91
2023-02-22T01:39:06.884Z,98995.21
2023-02-22T01:41:35.075Z,98998.52
2023-02-22T01:44:35.951Z,99003.11
2023-02-22T01:47:05.635Z,99001.55
2023-02-22T01:49:46.501Z,99008.44
2023-02-22T01:52:20.355Z,99011.89
2023-02-22T01:54:54.053Z,99019.16
2023-02-22T01:57:23.988Z,99021.96
2023-02-22T01:59:54.867Z,99029.80
2023-02-22T02:02:25.826Z,99035.48
2023-02-22T02:04:54.996Z,99039.92
2023-02-22T02:07:23.239Z,99046.14
2023-02-22T02:09:57.141Z,99054.48
2023-02-22T02:12:26.378Z,99057.35
2023-02-22T02:14:54.655Z,99059.77
2023-02-22T02:17:32.433Z,99060.02
2023-02-22T02:20:14.882Z,99069.92
2023-02-22T02:23:01.928Z,99074.52
2023-02-22T02:26:09.427Z,99080.88
2023-02-22T02:29:25.943Z,99080.96
2023-02-22T02:32:30.322Z,99093.15
2023-02-22T02:35:12.814Z,99093.96
2023-02-22T02:37:56.675Z,99097.48
2023-02-22T02:41:04.971Z,99104.45
2023-02-22T02:43:44.251Z,99106.14
2023-02-22T02:46:14.770Z,99110.43
2023-02-22T02:48:57.016Z,99112.35
2023-02-22T02:51:28.053Z,99116.04
2023-02-22T02:53:56.602Z,99124.39
2023-02-22T02:56:25.124Z,99129.75
2023-02-22T02:58:54.054Z,99134.29
2023-02-22T03:01:53.442Z,99135.34
2023-02-22T03:04:38.696Z,99139.02
2023-02-22T03:07:43.517Z,99144.98
2023-02-22T03:10:38.895Z,99148.30
2023-02-22T03:13:36.990Z,99157.98
2023-02-22T03:16:42.591Z,99163.19
2023-02-22T03:19:17.161Z,99167.19
2023-02-22T03:22:08.992Z,99172.92
2023-02-22T03:24:42.986Z,99171.02
2023-02-22T03:27:18.321Z,99177.98
2023-02-22T03:29:50.655Z,99181.55
2023-02-22T03:32:22.883Z,99183.83
2023-02-22T03:34:56.919Z,99189.48
2023-02-22T03:37:29.376Z,99194.66
2023-02-22T03:39:57.727Z,99194.80
2023-02-22T03:42:32.243Z,99199.66
2023-02-22T03:45:01.495Z,99204.16
2023-02-22T03:47:37.482Z,99209.30
2023-02-22T03:50:12.866Z,99216.83
2023-02-22T03:52:44.334Z,99224.78
2023-02-22T03:55:17.943Z,99228.15
2023-02-22T03:57:50.161Z,99232.61
2023-02-22T04:00:23.293Z,99229.90
2023-02-22T04:02:51.363Z,99235.70
2023-02-22T04:05:21.066Z,99237.45
2023-02-22T04:07:49.863Z,99238.98
2023-02-22T04:10:18.085Z,99241.80
2023-02-22T04:12:46.627Z,99249.26
2023-02-22T04:15:17.403Z,99257.18
2023-02-22T04:17:46.139Z,99258.13
2023-02-22T04:20:20.130Z,99262.79
2023-02-22T04:22:54.497Z,99274.45
2023-02-22T04:25:23.983Z,99275.67
2023-02-22T04:27:53.116Z,99276.00
2023-02-22T04:30:30.573Z,99276.02
2023-02-22T04:33:00.021Z,99280.46
2023-02-22T04:35:28.213Z,99287.84
2023-02-22T04:37:56.483Z,99288.08
2023-02-22T04:40:25.367Z,99296.75
2023-02-22T04:42:57.840Z,99301.94
2023-02-22T04:45:26.340Z,99305.94
2023-02-22T04:47:54.791Z,99314.35
2023-02-22T04:50:23.497Z,99314.23
2023-02-22T04:52:52.780Z,99316.17
2023-02-22T04:55:22.725Z,99315.52
2023-02-22T04:57:51.646Z,99324.27
2023-02-22T05:00:21.950Z,99329.69
2023-02-22T05:02:50.906Z,99335.23
2023-02-22T05:05:23.816Z,99339.28
2023-02-22T05:07:52.863Z,99341.44
2023-02-22T05:10:21.325Z,99348.54
2023-02-22T05:12:51.835Z,99352.10
2023-02-22T05:15:20.952Z,99352.17
2023-02-22T05:17:50.707Z,99359.16
2023-02-22T05:20:30.707Z,99366.48
2023-02-22T05:22:59.843Z,99372.70
2023-02-22T05:25:28.305Z,99370.95
2023-02-22T05:27:59.009Z,99380.42
2023-02-22T05:30:29.222Z,99381.45
2023-02-22T05:32:57.429Z,99387.92
2023-02-22T05:35:25.997Z,99397.19
2023-02-22T05:37:54.481Z,99399.64
2023-02-22T05:40:24.497Z,99409.30
2023-02-22T05:42:53.190Z,99417.67
2023-02-22T05:45:22.384Z,99419.59
2023-02-22T05:47:50.702Z,99428.29
2023-02-22T05:50:20.194Z,99430.61
2023-02-22T05:52:51.178Z,99436.80
2023-02-22T05:55:21.779Z,99439.34
2023-02-22T05:57:49.993Z,99444.58
2023-02-22T06:00:27.089Z,99446.12
2023-02-22T06:03:03.028Z,99449.56
2023-02-22T06:05:32.224Z,99449.83
2023-02-22T06:08:01.609Z,99457.20
2023-02-22T06:10:30.534Z,99461.61
2023-02-22T06:13:01.736Z,99466.34
2023-02-22T06:15:30.501Z,99470.95
2023-02-22T06:17:59.152Z,99476.42
2023-02-22T06:20:35.771Z,99483.89
2023-02-22T06:23:04.637Z,99485.88
2023-02-22T06:25:36.653Z,99489.22
2023-02-22T06:29:38.873Z,99496.58
2023-02-22T06:32:07.308Z,99502.63
2023-02-22T06:34:35.841Z,99500.27
2023-02-22T06:37:04.184Z,99503.98
2023-02-22T06:39:33.089Z,99506.77
2023-02-22T06:42:03.976Z,99516.13
2023-02-22T06:44:33.117Z,99516.88
2023-02-22T06:47:01.326Z,99524.01
2023-02-22T06:49:29.462Z,99524.47
2023-02-22T06:51:57.498Z,99526.84
2023-02-22T06:54:27.308Z,99535.33
2023-02-22T06:56:55.453Z,99535.19
2023-02-22T06:59:23.904Z,99536.45
2023-02-22T07:01:52.185Z,99536.55
2023-02-22T07:04:20.996Z,99537.05
2023-02-22T07:06:49.719Z,99546.23
2023-02-22T07:09:21.785Z,99550.63
2023-02-22T07:11:50.120Z,99550.20
2023-02-22T07:14:18.671Z,99558.30
2023-02-22T07:16:47.711Z,99560.07
2023-02-22T07:19:15.864Z,99561.16
2023-02-22T07:21:44.966Z,99558.16
2023-02-22T07:24:14.215Z,99563.94
2023-02-22T07:26:42.552Z,99563.08
2023-02-22T07:29:11.444Z,99564.41
2023-02-22T07:31:40.002Z,99564.98
2023-02-22T07:34:08.760Z,99568.92
2023-02-22T07:36:37.184Z,99574.15
2023-02-22T07:39:10.237Z,99577.18
2023-02-22T07:41:38.801Z,99578.48
2023-02-22T07:44:14.700Z,99577.86
2023-02-22T07:46:48.194Z,99584.38
2023-02-22T07:49:16.747Z,99583.08
2023-02-22T07:51:45.599Z,99585.52
2023-02-22T07:54:14.074Z,99588.75
2023-02-22T07:56:46.914Z,99592.71
2023-02-22T07:59:16.301Z,99594.17
2023-02-22T08:01:44.842Z,99592.95
2023-02-22T08:04:12.943Z,99597.91
2023-02-22T08:06:41.218Z,99599.76
2023-02-22T08:09:09.749Z,99600.30
2023-02-22T08:11:39.247Z,99599.42
2023-02-22T08:14:07.626Z,99597.83
2023-02-22T08:16:35.818Z,99597.63
2023-02-22T08:19:03.994Z,99599.44
2023-02-22T08:21:33.300Z,99611.72
2023-02-22T08:24:02.203Z,99610.78
2023-02-22T08:26:32.606Z,99616.29
2023-02-22T08:29:01.323Z,99618.11
2023-02-22T08:31:30.545Z,99619.31
2023-02-22T08:34:01.132Z,99623.66
2023-02-22T08:36:31.081Z,99628.65
2023-02-22T08:38:59.471Z,99624.16
2023-02-22T08:41:27.825Z,99622.98
2023-02-22T08:44:03.069Z,99623.27
2023-02-22T08:46:31.349Z,99624.55
2023-02-22T08:48:59.632Z,99624.90
2023-02-22T08:51:28.229Z,99631.01
2023-02-22T08:53:56.659Z,99630.74
2023-02-22T08:56:25.131Z,99636.08
2023-02-22T08:58:55.868Z,99632.48
2023-02-22T09:01:32.834Z,99630.40
2023-02-22T09:04:01.741Z,99633.49
2023-02-22T09:06:33.328Z,99636.28
2023-02-22T09:09:02.595Z,99636.98
2023-02-22T09:11:31.925Z,99633.77
2023-02-22T09:14:02.906Z,99640.40
2023-02-22T09:16:33.859Z,99638.38
2023-02-22T09:19:02.357Z,99641.55
2023-02-22T09:21:32.182Z,99645.35
2023-02-22T09:24:09.210Z,99644.05
2023-02-22T09:26:40.034Z,99644.86
2023-02-22T09:29:11.956Z,99647.66
2023-02-22T09:31:41.553Z,99647.91
2023-02-22T09:34:14.092Z,99651.88
2023-02-22T09:36:43.402Z,99651.97
2023-02-22T09:39:12.417Z,99650.50
2023-02-22T09:41:56.130Z,99650.67
2023-02-22T09:44:27.509Z,99651.70
2023-02-22T09:46:56.427Z,99656.60
2023-02-22T09:49:25.540Z,99654.91
2023-02-22T09:52:03.100Z,99653.52
2023-02-22T09:54:40.535Z,99652.89
2023-02-22T09:57:14.329Z,99654.62
2023-02-22T09:59:55.630Z,99653.58
2023-02-22T10:02:29.790Z,99650.02
2023-02-22T10:05:23.177Z,99649.42
2023-02-22T10:07:55.646Z,99646.30
2023-02-22T10:10:35.155Z,99648.23
2023-02-22T10:13:14.534Z,99646.98
2023-02-22T10:16:06.888Z,99649.56
2023-02-22T10:19:03.714Z,99650.95
2023-02-22T10:21:57.769Z,99656.08
2023-02-22T10:24:39.730Z,99659.04
2023-02-22T10:27:13.656Z,99661.88
2023-02-22T10:29:44.785Z,99660.10
2023-02-22T10:32:27.042Z,99655.26
2023-02-22T10:34:55.643Z,99658.86
2023-02-22T10:37:32.397Z,99660.48
2023-02-22T10:40:13.935Z,99657.16
2023-02-22T10:42:42.543Z,99659.31
2023-02-22T10:45:28.655Z,99650.95
2023-02-22T10:47:59.220Z,99653.55
2023-02-22T10:50:29.748Z,99653.83
2023-02-22T10:52:58.175Z,99649.49
2023-02-22T10:55:27.513Z,99644.76
2023-02-22T10:58:06.926Z,99646.23
2023-02-22T11:00:39.979Z,99647.31
2023-02-22T11:03:19.433Z,99649.06
2023-02-22T11:05:48.312Z,99651.73
2023-02-22T11:08:31.211Z,99654.52
2023-02-22T11:11:19.208Z,99653.05
2023-02-22T11:13:58.719Z,99655.04
2023-02-22T11:16:34.707Z,99651.77
2023-02-22T11:19:25.003Z,99654.85
2023-02-22T11:22:09.713Z,99663.36
2023-02-22T11:25:15.307Z,99667.44
2023-02-22T11:27:47.015Z,99667.36
2023-02-22T11:30:18.451Z,99669.92
2023-02-22T11:32:52.496Z,99667.70
2023-02-22T11:35:50.390Z,99668.93
2023-02-22T11:38:32.576Z,99672.78
2023-02-22T11:41:04.525Z,99673.05
2023-02-22T11:43:32.937Z,99676.52
2023-02-22T11:46:10.159Z,99674.95
2023-02-22T11:48:40.389Z,99675.33
2023-02-22T11:51:31.566Z,99675.08
2023-02-22T11:54:08.381Z,99670.32
2023-02-22T11:56:40.169Z,99670.98
2023-02-22T11:59:22.700Z,99674.65
2023-02-22T12:02:18.522Z,99668.86
2023-02-22T12:05:02.336Z,99671.00
2023-02-22T12:07:43.178Z,99671.60
2023-02-22T12:10:38.680Z,99668.29
2023-02-22T12:13:42.725Z,99666.21
2023-02-22T12:16:21.143Z,99666.23
2023-02-22T12:19:17.052Z,99664.46
2023-02-22T12:21:48.619Z,99666.79
2023-02-22T12:24:19.800Z,99665.05
2023-02-22T12:27:01.709Z,99668.10
2023-02-22T12:29:47.336Z,99670.12
2023-02-22T12:32:21.108Z,99673.63
2023-02-22T12:34:52.669Z,99675.52
2023-02-22T12:37:50.666Z,99679.70
2023-02-22T12:40:42.414Z,99678.60
2023-02-22T12:43:34.700Z,99676.47
2023-02-22T12:46:09.992Z,99681.14
2023-02-22T12:48:54.614Z,99679.92
2023-02-22T12:51:41.844Z,99676.34
2023-02-22T12:54:21.925Z,99675.77
2023-02-22T12:57:02.085Z,99675.52
2023-02-22T12:59:42.264Z,99685.49
2023-02-22T13:02:31.706Z,99687.11
2023-02-22T13:05:01.278Z,99691.69
2023-02-22T13:07:48.475Z,99694.09
2023-02-22T13:10:29.038Z,99698.30
2023-02-22T13:13:03.952Z,99698.10
2023-02-22T13:15:44.500Z,99702.00
2023-02-22T13:18:13.044Z,99704.27
2023-02-22T13:21:01.843Z,99706.20
2023-02-22T13:23:34.097Z,99707.42
2023-02-22T13:26:15.091Z,99711.36
2023-02-22T13:29:06.242Z,99711.97
2023-02-22T13:31:52.832Z,99715.83
2023-02-22T13:34:24.624Z,99717.30
2023-02-22T13:37:26.328Z,99719.14
2023-02-22T13:40:17.073Z,99718.53
2023-02-22T13:43:03.515Z,99720.37
2023-02-22T13:45:54.784Z,99723.40
2023-02-22T13:48:32.314Z,99725.58
2023-02-22T13:51:09.103Z,99730.02
2023-02-22T13:54:03.713Z,99724.61
2023-02-22T13:56:37.487Z,99726.92
2023-02-22T13:59:05.714Z,99732.83
2023-02-22T14:01:42.641Z,99735.15
2023-02-22T14:04:28.822Z,99739.95
2023-02-22T14:07:05.013Z,99741.23
2023-02-22T14:09:52.846Z,99745.59
2023-02-22T14:12:31.317Z,99747.16
2023-02-22T14:15:28.803Z,99751.44
2023-02-22T14:18:00.876Z,99756.04
2023-02-22T14:20:37.096Z,99758.11
2023-02-22T14:23:23.795Z,99757.71
2023-02-22T14:25:52.101Z,99757.95
2023-02-22T14:28:40.729Z,99758.83
2023-02-22T14:31:25.776Z,99761.27
2023-02-22T14:34:09.323Z,99762.27
2023-02-22T14:37:13.134Z,99760.14
2023-02-22T14:39:57.278Z,99769.63
2023-02-22T14:42:28.248Z,99766.45
2023-02-22T14:45:23.348Z,99762.92
2023-02-22T14:48:18.596Z,99763.48
2023-02-22T14:50:51.100Z,99765.34
2023-02-22T14:53:30.817Z,99767.11
2023-02-22T14:56:14.031Z,99768.23
2023-02-22T14:58:49.482Z,99768.52
2023-02-22T15:01:58.431Z,99771.96
2023-02-22T15:04:31.184Z,99779.98
2023-02-22T15:07:01.415Z,99782.40
2023-02-22T15:09:34.757Z,99786.14
2023-02-22T15:12:04.198Z,99795.15
2023-02-22T15:14:44.972Z,99797.12
2023-02-22T15:17:27.503Z,99795.69
2023-02-22T15:19:56.746Z,99799.36
2023-02-22T15:22:30.211Z,99797.80
2023-02-22T15:25:03.674Z,99801.89
2023-02-22T15:27:40.949Z,99804.38
2023-02-22T15:30:29.847Z,99809.20
2023-02-22T15:33:14.268Z,99815.17
2023-02-22T15:35:44.664Z,99820.06
2023-02-22T15:38:14.240Z,99822.70
2023-02-22T15:40:43.452Z,99823.78
2023-02-22T15:43:32.958Z,99827.69
2023-02-22T15:46:01.480Z,99829.60
2023-02-22T15:48:32.035Z,99828.63
2023-02-22T15:51:06.762Z,99828.73
2023-02-22T15:53:57.800Z,99832.14
2023-02-22T15:56:27.296Z,99838.34
2023-02-22T15:58:59.737Z,99842.36
2023-02-22T16:01:28.627Z,99845.80
2023-02-22T16:03:57.743Z,99847.15
2023-02-22T16:06:35.470Z,99852.63
2023-02-22T16:09:23.333Z,99855.56
2023-02-22T16:12:08.154Z,99862.71
2023-02-22T16:14:36.378Z,99864.45
2023-02-22T16:17:35.926Z,99868.94
2023-02-22T16:20:19.414Z,99877.10
2023-02-22T16:22:51.559Z,99883.44
2023-02-22T16:25:21.480Z,99883.93
2023-02-22T16:27:52.858Z,99890.85
2023-02-22T16:30:32.609Z,99892.86
2023-02-22T16:33:05.682Z,99891.88
2023-02-22T16:35:35.859Z,99896.06
2023-02-22T16:38:07.856Z,99897.30
2023-02-22T16:40:40.813Z,99902.81
2023-02-22T16:43:12.665Z,99904.61
2023-02-22T16:45:43.839Z,99907.95
2023-02-22T16:48:21.985Z,99910.59
2023-02-22T16:50:51.684Z,99918.92
2023-02-22T16:53:21.349Z,99922.52
2023-02-22T16:55:57.821Z,99924.92
2023-02-22T16:58:34.746Z,99924.61
2023-02-22T17:01:03.586Z,99921.13
2023-02-22T17:03:32.847Z,99923.92
2023-02-22T17:06:01.812Z,99925.90
2023-02-22T17:08:31.057Z,99924.33
2023-02-22T17:11:05.024Z,99926.02
2023-02-22T17:13:35.574Z,99925.43
2023-02-22T17:16:04.090Z,99929.16
2023-02-22T17:18:34.825Z,99929.33
2023-02-22T17:21:03.733Z,99929.72
2023-02-22T17:23:33.060Z,99931.52
2023-02-22T17:26:04.219Z,99937.97
2023-02-22T17:28:32.482Z,99940.38
2023-02-22T17:31:04.004Z,99942.71
2023-02-22T17:33:34.332Z,99948.21
2023-02-22T17:36:07.344Z,99950.45
2023-02-22T17:38:39.733Z,99952.34
2023-02-22T17:41:08.454Z,99960.05
2023-02-22T17:43:39.281Z,99961.45
2023-02-22T17:46:08.223Z,99966.06
2023-02-22T17:48:39.567Z,99968.94
2023-02-22T17:51:10.794Z,99967.11
2023-02-22T17:53:39.402Z,99970.48
2023-02-22T17:56:09.802Z,99965.18
2023-02-22T17:58:38.512Z,99968.40
2023-02-22T18:01:07.169Z,99967.52
2023-02-22T18:03:41.450Z,99969.70
2023-02-22T18:06:16.233Z,99972.59
2023-02-22T18:08:45.109Z,99974.71
2023-02-22T18:11:17.297Z,99979.54
2023-02-22T18:13:46.687Z,99980.96
2023-02-22T18:16:16.863Z,99984.25
2023-02-22T18:18:50.820Z,99988.40
2023-02-22T18:21:19.356Z,99987.59
2023-02-22T18:23:48.151Z,99991.02
2023-02-22T18:26:18.772Z,99989.53
2023-02-22T18:28:49.271Z,99992.07
2023-02-22T18:31:19.141Z,99992.25
2023-02-22T18:33:49.630Z,99996.49
2023-02-22T18:36:23.302Z,99994.40
2023-02-22T18:38:53.170Z,99995.46
2023-02-22T18:41:25.634Z,99998.42
2023-02-22T18:43:56.067Z,99999.91
2023-02-22T18:47:41.009Z,100003.32
2023-02-22T18:50:10.177Z,100006.26
2023-02-22T18:52:45.888Z,100007.95
2023-02-22T18:55:18.501Z,100012.73
2023-02-22T18:57:47.074Z,100013.89
2023-02-22T19:00:18.045Z,100019.08
2023-02-22T19:02:46.372Z,100017.81
2023-02-22T19:05:17.428Z,100018.27
2023-02-22T19:07:48.877Z,100023.52
2023-02-22T19:10:17.232Z,100025.84
2023-02-22T19:12:45.578Z,100026.91
2023-02-22T19:15:13.724Z,100032.02
2023-02-22T19:17:42.893Z,100029.83
2023-02-22T19:20:11.964Z,100038.30
2023-02-22T19:22:39.943Z,100039.00
2023-02-22T19:25:08.105Z,100045.65
2023-02-22T19:27:36.643Z,100046.98
2023-02-22T19:30:06.728Z,100049.30
2023-02-22T19:32:36.996Z,100049.19
2023-02-22T19:35:07.094Z,100048.86
2023-02-22T19:37:36.604Z,100048.39
2023-02-22T19:40:07.310Z,100051.00
2023-02-22T19:42:38.580Z,100051.27
2023-02-22T19:45:07.235Z,100050.52
2023-02-22T19:47:36.057Z,100053.16
2023-02-22T19:50:05.299Z,100055.09
2023-02-22T19:52:35.549Z,100051.29
2023-02-22T19:55:03.683Z,100051.77
2023-02-22T19:57:31.847Z,100050.45
2023-02-22T19:59:59.947Z,100054.30
2023-02-22T20:02:28.672Z,100054.92
2023-02-22T20:04:58.430Z,100058.10
2023-02-22T20:07:26.810Z,100065.33
2023-02-22T20:09:54.797Z,100070.08
2023-02-22T20:12:23.006Z,100075.89
2023-02-22T20:14:51.812Z,100078.97
2023-02-22T20:17:22.112Z,100079.00
2023-02-22T20:19:50.698Z,100080.92
2023-02-22T20:22:21.152Z,100084.84
2023-02-22T20:24:49.940Z,100092.02
2023-02-22T20:27:17.909Z,100095.14
2023-02-22T20:29:46.677Z,100099.10
2023-02-22T20:32:17.084Z,100101.09
2023-02-22T20:34:51.318Z,100108.39
2023-02-22T20:37:20.050Z,100111.63
2023-02-22T20:39:48.447Z,100112.16
2023-02-22T20:42:17.136Z,100118.73
2023-02-22T20:44:45.402Z,100120.65
2023-02-22T20:47:13.423Z,100123.23
2023-02-22T20:49:41.815Z,100124.86
2023-02-22T20:52:09.762Z,100126.89
2023-02-22T20:54:39.101Z,100129.31
2023-02-22T20:57:08.200Z,100127.59
2023-02-22T20:59:36.885Z,100129.67
2023-02-22T21:02:05.060Z,100132.71
2023-02-22T21:04:34.331Z,100131.05
2023-02-22T21:07:03.367Z,100133.02
2023-02-22T21:09:34.493Z,100140.06
2023-02-22T21:12:02.888Z,100140.64
2023-02-22T21:14:32.511Z,100140.48
2023-02-22T21:17:04.871Z,100148.56
2023-02-22T21:19:34.571Z,100150.61
2023-02-22T21:22:08.703Z,100156.52
2023-02-22T21:24:37.267Z,100159.74
2023-02-22T21:27:07.180Z,100158.39
2023-02-22T21:29:38.633Z,100166.78
2023-02-22T21:32:08.714Z,100164.03
2023-02-22T21:34:38.734Z,100161.34
2023-02-22T21:37:08.360Z,100168.71
2023-02-22T21:39:38.328Z,100171.86
2023-02-22T21:42:07.420Z,100172.87
2023-02-22T21:44:36.222Z,100175.73
2023-02-22T21:47:04.244Z,100173.58
2023-02-22T21:49:33.759Z,100180.42
2023-02-22T21:52:01.711Z,100180.20
2023-02-22T21:54:29.901Z,100186.91
2023-02-22T21:56:59.912Z,100195.62
2023-02-22T21:59:28.110Z,100202.77
2023-02-22T22:01:56.716Z,100207.85
2023-02-22T22:04:29.730Z,100209.50
2023-02-22T22:06:59.209Z,100211.73
2023-02-22T22:09:33.242Z,100207.15
2023-02-22T22:12:11.192Z,100211.65
2023-02-22T22:14:41.802Z,100214.94
2023-02-22T22:17:12.695Z,100220.09
2023-02-22T22:19:44.515Z,100221.27
2023-02-22T22:22:12.934Z,100226.78
2023-02-22T22:24:45.776Z,100228.36
2023-02-22T22:27:14.058Z,100235.90
2023-02-22T22:29:43.554Z,100236.39
2023-02-22T22:32:11.813Z,100236.39
2023-02-22T22:34:43.629Z,100237.62
2023-02-22T22:37:11.650Z,100236.15
2023-02-22T22:39:39.752Z,100240.44
2023-02-22T22:42:09.196Z,100244.23
2023-02-22T22:44:42.291Z,100246.50
2023-02-22T22:47:13.937Z,100248.10
2023-02-22T22:49:42.793Z,100247.77
2023-02-22T22:52:14.916Z,100246.06
2023-02-22T22:54:50.876Z,100251.35
2023-02-22T22:57:18.949Z,100253.31
2023-02-22T22:59:47.167Z,100253.39
2023-02-22T23:02:18.103Z,100254.15
2023-02-22T23:04:52.296Z,100256.09
2023-02-22T23:07:20.350Z,100258.77
2023-02-22T23:09:48.515Z,100260.64
2023-02-22T23:12:24.068Z,100263.82
2023-02-22T23:14:55.293Z,100268.33
2023-02-22T23:17:41.316Z,100273.34
2023-02-22T23:20:11.509Z,100273.34
2023-02-22T23:22:47.317Z,100276.42
2023-02-22T23:25:21.398Z,100278.79
2023-02-22T23:27:50.746Z,100283.34
2023-02-22T23:30:20.510Z,100283.70
2023-02-22T23:32:49.941Z,100283.16
2023-02-22T23:35:21.161Z,100283.40
2023-02-22T23:37:53.066Z,100287.48
2023-02-22T23:40:21.203Z,100290.33
2023-02-22T23:42:51.117Z,100295.23
2023-02-22T23:45:25.230Z,100299.70
2023-02-22T23:47:54.834Z,100302.62
2023-02-22T23:50:26.439Z,100303.62
2023-02-22T23:52:59.204Z,100305.33
2023-02-22T23:55:31.432Z,100306.02
2023-02-22T23:57:59.755Z,100312.05
